Southeast Iowa Regional Airport
KBRL : now visible

Airfield :











YOU CAN JOIN US ON...

 
LOGIN :

Register | Disclaimer

   EN    FR    IT 

 









Legend :    VFR   Marginal VFR   IFR   Intensive IFR   Very Intensive IFR
Visi :
Ceiling :
>= 8 km
>= 3000ft
5 to 8 km
1000 to 3000 ft
1500m to 5 km
500 to 1000 ft
800 to 1500m
200 to 500 ft
< 800m
< 200 ft
Symbols :   Thunderstorms  Fog  Heavy snow  Heavy precipitations  Wind > 20 kt






- Airport Elevation : 698 ft
- IATA code : BRL


KBRL - Southeast Iowa Regional

CURRENT METAR :
  • 101812Z AUTO 35014G26KT 1 3/4SM +RA BR SCT007 OVC012 08/08 A2943 RMK AO2 PK WND 34026/1804 P0008 T00830078 $

EXPIRED METARs :
  • 101802Z AUTO 35016G26KT 2SM +RA BR OVC010 08/08 A2944 RMK AO2 PK WND 35026/1755 P0004 T00830078 $
  • 101744Z AUTO 35018KT 1 1/4SM +RA BR FEW009 BKN013 OVC038 08/08 A2945 RMK AO2 PK WND 36036/1713 P0017 T00830078 $
  • 101732Z AUTO 36023G33KT 1 3/4SM +RA BR FEW011 BKN021 OVC038 08/07 A2946 RMK AO2 PK WND 36036/1713 P0009 T00830072 $
  • 101715Z AUTO 01024G36KT 3SM -RA BR FEW009 BKN031 OVC040 08/07 A2946 RMK AO2 PK WND 36036/1713 P0006 T00830072 $
  • 101653Z AUTO 36022G28KT 1 1/2SM +RA BR FEW008 BKN012 OVC032 08/07 A2948 RMK AO2 PK WND 35031/1605 SLP984 P0041 T00780072 $
  • 101628Z AUTO 36020G30KT 1SM +RA BR FEW008 OVC012 08/07 A2949 RMK AO2 PK WND 35031/1605 P0026 T00780072 $
  • 101553Z AUTO 01025G35KT 1 1/2SM +RA BR FEW008 BKN022 OVC039 08/07 A2950 RMK AO2 PK WND 01035/1548 SLP990 P0029 T00780072
  • 101542Z AUTO 01022G33KT 2SM +RA BR FEW008 BKN026 OVC055 08/07 A2950 RMK AO2 PK WND 01033/1542 P0023 T00780072

TAF KBRL
Valid from the 10 at 18:00 until the 11 at 18:00 UTC


101802Z 1018/1118 36020G37KT 2SM RA BR SCT007 OVC012
TEMPO 1018/1020 1SM +RA BR BKN008
FM102000 36018G37KT 3SM -RA BR BKN009 OVC020
FM110100 33017G33KT 4SM -RA BR OVC009
FM111100 31016G27KT P6SM OVC008
FM111400 30015G24KT P6SM OVC015
KZAU FIR / North America



MET'MAP, your aeronautical weather chart ! - Copyright ORBIFLY December 2007 - Disclaimer

ORBIFLY MET'MAP TEAM :

Programming & Development : Alexandra Zaïnal
Concept & original design : Baudouin d'Aumeries
Assistance for programming : Marc-Olivier Méhu
Technical & hardware support : Manuel Goepfert

Contact : metmap@orbifly.com




SOURCES & CREDITS :

   NOAA       Earth
Advisory